sensor_id;sensor_type;location;lat;lon;timestamp;temperature;humidity
21429;DHT22;10875;50.444;30.540;2022-10-31T00:00:46;9.60;99.90
21429;DHT22;10875;50.444;30.540;2022-10-31T00:03:12;9.60;99.90
21429;DHT22;10875;50.444;30.540;2022-10-31T00:05:48;9.60;99.90
21429;DHT22;10875;50.444;30.540;2022-10-31T00:08:14;9.60;99.90
21429;DHT22;10875;50.444;30.540;2022-10-31T00:10:41;9.60;99.90
21429;DHT22;10875;50.444;30.540;2022-10-31T00:13:07;9.60;99.90
21429;DHT22;10875;50.444;30.540;2022-10-31T00:15:34;10.30;99.90
21429;DHT22;10875;50.444;30.540;2022-10-31T00:18:00;9.50;99.90
21429;DHT22;10875;50.444;30.540;2022-10-31T00:20:26;9.40;99.90
21429;DHT22;10875;50.444;30.540;2022-10-31T00:22:51;9.40;99.90
21429;DHT22;10875;50.444;30.540;2022-10-31T00:25:17;9.40;99.90
21429;DHT22;10875;50.444;30.540;2022-10-31T00:27:43;9.40;99.90
21429;DHT22;10875;50.444;30.540;2022-10-31T00:30:08;9.40;99.90
21429;DHT22;10875;50.444;30.540;2022-10-31T00:32:34;9.40;99.90
21429;DHT22;10875;50.444;30.540;2022-10-31T00:35:00;9.40;99.90
21429;DHT22;10875;50.444;30.540;2022-10-31T00:37:26;9.40;99.90
21429;DHT22;10875;50.444;30.540;2022-10-31T00:39:52;9.50;99.90
21429;DHT22;10875;50.444;30.540;2022-10-31T00:42:17;9.40;99.90
21429;DHT22;10875;50.444;30.540;2022-10-31T00:44:43;9.30;99.90
21429;DHT22;10875;50.444;30.540;2022-10-31T00:47:08;9.30;99.90
21429;DHT22;10875;50.444;30.540;2022-10-31T00:49:34;9.30;99.90
21429;DHT22;10875;50.444;30.540;2022-10-31T00:52:00;9.20;99.90
21429;DHT22;10875;50.444;30.540;2022-10-31T00:54:25;9.30;99.90
21429;DHT22;10875;50.444;30.540;2022-10-31T00:56:51;9.30;99.90
21429;DHT22;10875;50.444;30.540;2022-10-31T00:59:16;9.30;99.90
21429;DHT22;10875;50.444;30.540;2022-10-31T01:01:42;9.30;99.90
21429;DHT22;10875;50.444;30.540;2022-10-31T01:04:07;9.30;99.90
21429;DHT22;10875;50.444;30.540;2022-10-31T01:06:33;9.30;99.90
21429;DHT22;10875;50.444;30.540;2022-10-31T01:08:58;9.30;99.90
21429;DHT22;10875;50.444;30.540;2022-10-31T01:11:24;9.30;99.90
21429;DHT22;10875;50.444;30.540;2022-10-31T01:13:51;9.30;99.90
21429;DHT22;10875;50.444;30.540;2022-10-31T01:16:19;9.30;99.90
21429;DHT22;10875;50.444;30.540;2022-10-31T01:18:45;9.20;99.90
21429;DHT22;10875;50.444;30.540;2022-10-31T01:21:14;9.10;99.90
21429;DHT22;10875;50.444;30.540;2022-10-31T01:23:40;9.90;99.90
21429;DHT22;10875;50.444;30.540;2022-10-31T01:26:12;9.10;99.90
21429;DHT22;10875;50.444;30.540;2022-10-31T01:28:44;9.10;99.90
21429;DHT22;10875;50.444;30.540;2022-10-31T01:31:10;9.10;99.90
21429;DHT22;10875;50.444;30.540;2022-10-31T01:33:36;9.10;99.90
21429;DHT22;10875;50.444;30.540;2022-10-31T01:36:15;9.10;99.90
21429;DHT22;10875;50.444;30.540;2022-10-31T01:38:41;9.10;99.90
21429;DHT22;10875;50.444;30.540;2022-10-31T01:41:08;9.10;99.90
21429;DHT22;10875;50.444;30.540;2022-10-31T01:46:13;9.10;99.90
21429;DHT22;10875;50.444;30.540;2022-10-31T01:48:41;9.10;99.90
21429;DHT22;10875;50.444;30.540;2022-10-31T01:51:08;9.10;99.90
21429;DHT22;10875;50.444;30.540;2022-10-31T01:53:33;9.20;99.90
21429;DHT22;10875;50.444;30.540;2022-10-31T01:56:00;9.10;99.90
21429;DHT22;10875;50.444;30.540;2022-10-31T01:58:28;9.10;99.90
21429;DHT22;10875;50.444;30.540;2022-10-31T02:00:58;10.20;99.90
21429;DHT22;10875;50.444;30.540;2022-10-31T02:03:25;9.10;99.90
21429;DHT22;10875;50.444;30.540;2022-10-31T02:05:53;9.10;99.90
21429;DHT22;10875;50.444;30.540;2022-10-31T02:08:30;9.00;99.90
21429;DHT22;10875;50.444;30.540;2022-10-31T02:10:57;9.00;99.90
21429;DHT22;10875;50.444;30.540;2022-10-31T02:13:24;9.00;99.90
21429;DHT22;10875;50.444;30.540;2022-10-31T02:15:53;9.00;99.90
21429;DHT22;10875;50.444;30.540;2022-10-31T02:18:20;9.00;99.90
21429;DHT22;10875;50.444;30.540;2022-10-31T02:32:20;9.00;99.90
21429;DHT22;10875;50.444;30.540;2022-10-31T02:37:37;8.90;99.90
21429;DHT22;10875;50.444;30.540;2022-10-31T02:40:05;8.90;99.90
21429;DHT22;10875;50.444;30.540;2022-10-31T02:45:26;8.90;99.90
21429;DHT22;10875;50.444;30.540;2022-10-31T02:47:55;8.90;99.90
21429;DHT22;10875;50.444;30.540;2022-10-31T02:50:33;8.90;99.90
21429;DHT22;10875;50.444;30.540;2022-10-31T02:53:00;8.90;99.90
21429;DHT22;10875;50.444;30.540;2022-10-31T02:58:07;8.90;99.90
21429;DHT22;10875;50.444;30.540;2022-10-31T03:06:05;9.00;99.90
21429;DHT22;10875;50.444;30.540;2022-10-31T03:08:50;9.00;99.90
21429;DHT22;10875;50.444;30.540;2022-10-31T03:11:23;9.00;99.90
21429;DHT22;10875;50.444;30.540;2022-10-31T03:16:50;9.00;99.90
21429;DHT22;10875;50.444;30.540;2022-10-31T03:19:17;9.00;99.90
21429;DHT22;10875;50.444;30.540;2022-10-31T03:21:52;9.10;99.90
21429;DHT22;10875;50.444;30.540;2022-10-31T03:24:19;9.00;99.90
21429;DHT22;10875;50.444;30.540;2022-10-31T03:26:49;9.00;99.90
21429;DHT22;10875;50.444;30.540;2022-10-31T03:29:19;9.00;99.90
21429;DHT22;10875;50.444;30.540;2022-10-31T03:31:48;9.00;99.90
21429;DHT22;10875;50.444;30.540;2022-10-31T03:34:16;9.00;99.90
21429;DHT22;10875;50.444;30.540;2022-10-31T03:36:44;9.00;99.90
21429;DHT22;10875;50.444;30.540;2022-10-31T03:39:13;9.00;99.90
21429;DHT22;10875;50.444;30.540;2022-10-31T03:41:43;8.90;99.90
21429;DHT22;10875;50.444;30.540;2022-10-31T03:44:14;10.90;99.90
21429;DHT22;10875;50.444;30.540;2022-10-31T03:46:42;8.90;99.90
21429;DHT22;10875;50.444;30.540;2022-10-31T03:49:08;8.80;99.90
21429;DHT22;10875;50.444;30.540;2022-10-31T03:51:43;8.80;99.90
21429;DHT22;10875;50.444;30.540;2022-10-31T04:00:06;8.70;99.90
21429;DHT22;10875;50.444;30.540;2022-10-31T04:02:34;8.60;99.90
21429;DHT22;10875;50.444;30.540;2022-10-31T04:05:01;8.50;99.90
21429;DHT22;10875;50.444;30.540;2022-10-31T04:07:32;8.40;99.90
21429;DHT22;10875;50.444;30.540;2022-10-31T04:10:00;8.40;99.90
21429;DHT22;10875;50.444;30.540;2022-10-31T04:12:29;8.30;99.90
21429;DHT22;10875;50.444;30.540;2022-10-31T04:14:57;8.30;99.90
21429;DHT22;10875;50.444;30.540;2022-10-31T04:17:23;8.20;99.90
21429;DHT22;10875;50.444;30.540;2022-10-31T04:19:49;8.20;99.90
21429;DHT22;10875;50.444;30.540;2022-10-31T04:22:15;8.10;99.90
21429;DHT22;10875;50.444;30.540;2022-10-31T04:24:41;8.10;99.90
21429;DHT22;10875;50.444;30.540;2022-10-31T04:27:06;8.00;99.90
21429;DHT22;10875;50.444;30.540;2022-10-31T04:29:32;8.00;99.90
21429;DHT22;10875;50.444;30.540;2022-10-31T04:31:57;8.00;99.90
21429;DHT22;10875;50.444;30.540;2022-10-31T04:34:23;8.00;99.90
21429;DHT22;10875;50.444;30.540;2022-10-31T04:36:49;7.90;99.90
21429;DHT22;10875;50.444;30.540;2022-10-31T04:39:14;7.90;99.90
21429;DHT22;10875;50.444;30.540;2022-10-31T04:41:40;7.90;99.90
21429;DHT22;10875;50.444;30.540;2022-10-31T04:44:05;7.80;99.90
21429;DHT22;10875;50.444;30.540;2022-10-31T04:46:31;7.80;99.90
21429;DHT22;10875;50.444;30.540;2022-10-31T04:48:56;7.80;99.90
21429;DHT22;10875;50.444;30.540;2022-10-31T04:51:22;7.70;99.90
21429;DHT22;10875;50.444;30.540;2022-10-31T04:53:48;7.70;99.90
21429;DHT22;10875;50.444;30.540;2022-10-31T04:56:13;7.80;99.90
21429;DHT22;10875;50.444;30.540;2022-10-31T04:58:39;7.70;99.90
21429;DHT22;10875;50.444;30.540;2022-10-31T05:01:05;7.70;99.90
21429;DHT22;10875;50.444;30.540;2022-10-31T05:03:31;7.70;99.90
21429;DHT22;10875;50.444;30.540;2022-10-31T05:05:56;7.70;99.90
21429;DHT22;10875;50.444;30.540;2022-10-31T05:08:22;7.60;99.90
21429;DHT22;10875;50.444;30.540;2022-10-31T05:10:47;7.60;99.90
21429;DHT22;10875;50.444;30.540;2022-10-31T05:13:13;7.60;99.90
21429;DHT22;10875;50.444;30.540;2022-10-31T05:15:40;7.60;99.90
21429;DHT22;10875;50.444;30.540;2022-10-31T05:18:05;7.60;99.90
21429;DHT22;10875;50.444;30.540;2022-10-31T05:20:31;7.60;99.90
21429;DHT22;10875;50.444;30.540;2022-10-31T05:22:58;7.50;99.90
21429;DHT22;10875;50.444;30.540;2022-10-31T05:25:24;7.50;99.90
21429;DHT22;10875;50.444;30.540;2022-10-31T05:27:52;7.50;99.90
21429;DHT22;10875;50.444;30.540;2022-10-31T05:30:19;7.50;99.90
21429;DHT22;10875;50.444;30.540;2022-10-31T05:32:46;7.50;99.90
21429;DHT22;10875;50.444;30.540;2022-10-31T05:35:15;7.60;99.90
21429;DHT22;10875;50.444;30.540;2022-10-31T05:37:41;7.60;99.90
21429;DHT22;10875;50.444;30.540;2022-10-31T05:40:09;7.80;99.90
21429;DHT22;10875;50.444;30.540;2022-10-31T05:42:35;8.00;99.90
21429;DHT22;10875;50.444;30.540;2022-10-31T05:45:01;8.20;99.90
21429;DHT22;10875;50.444;30.540;2022-10-31T05:47:27;8.70;99.90
21429;DHT22;10875;50.444;30.540;2022-10-31T05:49:52;9.10;99.90
21429;DHT22;10875;50.444;30.540;2022-10-31T05:52:18;9.40;99.90
21429;DHT22;10875;50.444;30.540;2022-10-31T05:54:44;9.60;99.90
21429;DHT22;10875;50.444;30.540;2022-10-31T05:57:10;9.90;99.90
21429;DHT22;10875;50.444;30.540;2022-10-31T05:59:35;10.30;99.90
21429;DHT22;10875;50.444;30.540;2022-10-31T06:02:01;10.40;99.90
21429;DHT22;10875;50.444;30.540;2022-10-31T06:04:27;10.40;99.90
21429;DHT22;10875;50.444;30.540;2022-10-31T06:06:53;11.10;99.90
21429;DHT22;10875;50.444;30.540;2022-10-31T06:09:18;11.70;99.90
21429;DHT22;10875;50.444;30.540;2022-10-31T06:11:44;11.90;99.90
21429;DHT22;10875;50.444;30.540;2022-10-31T06:14:10;12.60;99.90
21429;DHT22;10875;50.444;30.540;2022-10-31T06:16:35;13.40;99.90
21429;DHT22;10875;50.444;30.540;2022-10-31T06:19:01;13.20;99.90
21429;DHT22;10875;50.444;30.540;2022-10-31T06:21:27;12.60;99.90
21429;DHT22;10875;50.444;30.540;2022-10-31T06:23:53;11.90;99.90
21429;DHT22;10875;50.444;30.540;2022-10-31T06:26:18;11.20;99.90
21429;DHT22;10875;50.444;30.540;2022-10-31T06:28:44;10.80;99.90
21429;DHT22;10875;50.444;30.540;2022-10-31T06:31:09;10.60;99.90
21429;DHT22;10875;50.444;30.540;2022-10-31T06:33:35;10.40;99.90
21429;DHT22;10875;50.444;30.540;2022-10-31T06:36:01;10.20;99.90
21429;DHT22;10875;50.444;30.540;2022-10-31T06:38:27;10.20;99.90
21429;DHT22;10875;50.444;30.540;2022-10-31T06:40:54;10.30;99.90
21429;DHT22;10875;50.444;30.540;2022-10-31T06:43:20;10.20;99.90
21429;DHT22;10875;50.444;30.540;2022-10-31T06:45:46;10.30;99.90
21429;DHT22;10875;50.444;30.540;2022-10-31T06:48:12;10.30;99.90
21429;DHT22;10875;50.444;30.540;2022-10-31T06:50:37;10.40;99.90
21429;DHT22;10875;50.444;30.540;2022-10-31T06:53:03;10.50;99.90
21429;DHT22;10875;50.444;30.540;2022-10-31T06:55:29;10.60;99.90
21429;DHT22;10875;50.444;30.540;2022-10-31T06:57:56;10.50;99.60
21429;DHT22;10875;50.444;30.540;2022-10-31T07:00:22;10.50;99.80
21429;DHT22;10875;50.444;30.540;2022-10-31T07:03:01;10.50;99.40
21429;DHT22;10875;50.444;30.540;2022-10-31T07:05:28;10.60;99.00
21429;DHT22;10875;50.444;30.540;2022-10-31T07:07:55;10.90;98.60
21429;DHT22;10875;50.444;30.540;2022-10-31T07:10:21;11.10;97.90
21429;DHT22;10875;50.444;30.540;2022-10-31T07:12:47;11.20;98.00
21429;DHT22;10875;50.444;30.540;2022-10-31T07:15:13;11.30;97.70
21429;DHT22;10875;50.444;30.540;2022-10-31T07:17:39;11.20;97.40
21429;DHT22;10875;50.444;30.540;2022-10-31T07:20:05;11.20;97.80
21429;DHT22;10875;50.444;30.540;2022-10-31T07:22:37;11.30;97.60
21429;DHT22;10875;50.444;30.540;2022-10-31T07:25:03;11.40;97.20
21429;DHT22;10875;50.444;30.540;2022-10-31T07:27:34;11.30;96.60
21429;DHT22;10875;50.444;30.540;2022-10-31T07:30:00;11.30;96.90
21429;DHT22;10875;50.444;30.540;2022-10-31T07:32:25;11.30;96.60
21429;DHT22;10875;50.444;30.540;2022-10-31T07:34:51;11.40;96.40
21429;DHT22;10875;50.444;30.540;2022-10-31T07:37:16;11.60;95.80
21429;DHT22;10875;50.444;30.540;2022-10-31T07:39:42;11.70;95.70
21429;DHT22;10875;50.444;30.540;2022-10-31T07:42:08;11.70;96.00
21429;DHT22;10875;50.444;30.540;2022-10-31T07:44:33;11.80;95.80
21429;DHT22;10875;50.444;30.540;2022-10-31T07:46:59;12.90;96.30
21429;DHT22;10875;50.444;30.540;2022-10-31T07:49:24;12.10;95.80
21429;DHT22;10875;50.444;30.540;2022-10-31T07:51:50;12.10;96.30
21429;DHT22;10875;50.444;30.540;2022-10-31T07:54:16;12.10;96.40
21429;DHT22;10875;50.444;30.540;2022-10-31T07:56:41;12.20;96.60
21429;DHT22;10875;50.444;30.540;2022-10-31T07:59:07;12.50;96.00
21429;DHT22;10875;50.444;30.540;2022-10-31T08:01:33;12.50;95.20
21429;DHT22;10875;50.444;30.540;2022-10-31T08:03:58;12.70;94.80
21429;DHT22;10875;50.444;30.540;2022-10-31T08:06:24;12.90;94.60
21429;DHT22;10875;50.444;30.540;2022-10-31T08:08:49;13.80;94.30
21429;DHT22;10875;50.444;30.540;2022-10-31T08:11:15;13.10;94.40
21429;DHT22;10875;50.444;30.540;2022-10-31T08:13:40;13.30;94.20
21429;DHT22;10875;50.444;30.540;2022-10-31T08:16:08;13.50;93.90
21429;DHT22;10875;50.444;30.540;2022-10-31T08:18:33;13.50;93.50
21429;DHT22;10875;50.444;30.540;2022-10-31T08:20:59;13.50;93.30
21429;DHT22;10875;50.444;30.540;2022-10-31T08:23:24;13.40;92.30
21429;DHT22;10875;50.444;30.540;2022-10-31T08:25:50;13.20;92.10
21429;DHT22;10875;50.444;30.540;2022-10-31T08:28:15;13.10;93.20
21429;DHT22;10875;50.444;30.540;2022-10-31T08:30:41;13.20;92.80
21429;DHT22;10875;50.444;30.540;2022-10-31T08:33:15;13.50;92.40
21429;DHT22;10875;50.444;30.540;2022-10-31T08:35:42;13.40;92.40
21429;DHT22;10875;50.444;30.540;2022-10-31T08:38:10;13.80;91.80
21429;DHT22;10875;50.444;30.540;2022-10-31T08:40:35;14.00;91.30
21429;DHT22;10875;50.444;30.540;2022-10-31T08:43:08;14.20;90.60
21429;DHT22;10875;50.444;30.540;2022-10-31T08:45:35;14.20;90.00
21429;DHT22;10875;50.444;30.540;2022-10-31T08:48:03;14.10;88.10
21429;DHT22;10875;50.444;30.540;2022-10-31T08:50:31;13.90;87.90
21429;DHT22;10875;50.444;30.540;2022-10-31T08:53:05;13.80;87.90
21429;DHT22;10875;50.444;30.540;2022-10-31T08:55:33;13.80;86.50
21429;DHT22;10875;50.444;30.540;2022-10-31T08:57:59;13.70;86.30
21429;DHT22;10875;50.444;30.540;2022-10-31T09:00:25;13.70;88.00
21429;DHT22;10875;50.444;30.540;2022-10-31T09:02:58;13.50;87.60
21429;DHT22;10875;50.444;30.540;2022-10-31T09:05:24;13.60;87.90
21429;DHT22;10875;50.444;30.540;2022-10-31T09:07:50;13.50;86.30
21429;DHT22;10875;50.444;30.540;2022-10-31T09:10:15;13.50;85.10
21429;DHT22;10875;50.444;30.540;2022-10-31T09:12:41;13.60;84.80
21429;DHT22;10875;50.444;30.540;2022-10-31T09:15:07;13.80;85.50
21429;DHT22;10875;50.444;30.540;2022-10-31T09:17:33;13.80;85.10
21429;DHT22;10875;50.444;30.540;2022-10-31T09:19:58;13.90;84.80
21429;DHT22;10875;50.444;30.540;2022-10-31T09:22:24;13.90;84.10
21429;DHT22;10875;50.444;30.540;2022-10-31T09:24:50;13.90;83.00
21429;DHT22;10875;50.444;30.540;2022-10-31T09:27:15;13.60;83.30
21429;DHT22;10875;50.444;30.540;2022-10-31T09:29:41;13.70;83.20
21429;DHT22;10875;50.444;30.540;2022-10-31T09:32:06;13.50;84.50
21429;DHT22;10875;50.444;30.540;2022-10-31T09:34:32;13.40;84.50
21429;DHT22;10875;50.444;30.540;2022-10-31T09:36:57;13.30;83.40
21429;DHT22;10875;50.444;30.540;2022-10-31T09:39:23;13.10;82.30
21429;DHT22;10875;50.444;30.540;2022-10-31T09:44:35;13.50;81.40
21429;DHT22;10875;50.444;30.540;2022-10-31T09:47:26;13.50;81.00
21429;DHT22;10875;50.444;30.540;2022-10-31T09:50:06;13.60;80.30
21429;DHT22;10875;50.444;30.540;2022-10-31T09:52:38;12.20;79.40
21429;DHT22;10875;50.444;30.540;2022-10-31T09:55:15;13.40;79.20
21429;DHT22;10875;50.444;30.540;2022-10-31T09:57:42;13.50;78.90
21429;DHT22;10875;50.444;30.540;2022-10-31T10:00:19;13.60;78.90
21429;DHT22;10875;50.444;30.540;2022-10-31T10:06:00;14.00;78.10
21429;DHT22;10875;50.444;30.540;2022-10-31T10:08:31;14.10;77.90
21429;DHT22;10875;50.444;30.540;2022-10-31T10:14:04;14.00;76.50
21429;DHT22;10875;50.444;30.540;2022-10-31T10:16:53;14.00;75.20
21429;DHT22;10875;50.444;30.540;2022-10-31T10:22:10;13.90;75.00
21429;DHT22;10875;50.444;30.540;2022-10-31T10:32:46;14.00;74.60
21429;DHT22;10875;50.444;30.540;2022-10-31T10:35:24;14.00;74.30
21429;DHT22;10875;50.444;30.540;2022-10-31T10:40:37;14.30;73.90
21429;DHT22;10875;50.444;30.540;2022-10-31T10:43:20;14.40;73.90
21429;DHT22;10875;50.444;30.540;2022-10-31T10:48:53;14.70;73.30
21429;DHT22;10875;50.444;30.540;2022-10-31T10:51:36;14.90;72.40
21429;DHT22;10875;50.444;30.540;2022-10-31T10:54:54;15.10;70.90
21429;DHT22;10875;50.444;30.540;2022-10-31T11:00:16;14.80;70.20
21429;DHT22;10875;50.444;30.540;2022-10-31T11:02:42;14.60;70.70
21429;DHT22;10875;50.444;30.540;2022-10-31T11:05:42;14.50;70.50
21429;DHT22;10875;50.444;30.540;2022-10-31T11:08:10;14.40;71.00
21429;DHT22;10875;50.444;30.540;2022-10-31T11:10:36;14.30;72.30
21429;DHT22;10875;50.444;30.540;2022-10-31T11:13:14;15.90;72.10
21429;DHT22;10875;50.444;30.540;2022-10-31T11:16:26;14.70;70.50
21429;DHT22;10875;50.444;30.540;2022-10-31T11:18:52;14.60;70.40
21429;DHT22;10875;50.444;30.540;2022-10-31T11:21:28;14.50;69.70
21429;DHT22;10875;50.444;30.540;2022-10-31T11:26:35;14.40;69.90
21429;DHT22;10875;50.444;30.540;2022-10-31T11:29:03;14.40;69.20
21429;DHT22;10875;50.444;30.540;2022-10-31T11:31:31;14.30;69.00
21429;DHT22;10875;50.444;30.540;2022-10-31T11:34:00;14.30;69.30
21429;DHT22;10875;50.444;30.540;2022-10-31T11:36:33;14.10;69.60
21429;DHT22;10875;50.444;30.540;2022-10-31T11:39:02;14.00;69.70
21429;DHT22;10875;50.444;30.540;2022-10-31T11:41:34;13.90;69.50
21429;DHT22;10875;50.444;30.540;2022-10-31T11:44:11;13.90;69.70
21429;DHT22;10875;50.444;30.540;2022-10-31T11:46:50;13.70;69.40
21429;DHT22;10875;50.444;30.540;2022-10-31T11:49:38;13.40;70.50
21429;DHT22;10875;50.444;30.540;2022-10-31T11:52:07;13.30;71.10
21429;DHT22;10875;50.444;30.540;2022-10-31T11:54:57;13.10;70.30
21429;DHT22;10875;50.444;30.540;2022-10-31T11:57:32;12.90;71.00
21429;DHT22;10875;50.444;30.540;2022-10-31T12:00:00;12.40;71.70
21429;DHT22;10875;50.444;30.540;2022-10-31T12:02:26;12.40;72.00
21429;DHT22;10875;50.444;30.540;2022-10-31T12:05:25;12.40;72.40
21429;DHT22;10875;50.444;30.540;2022-10-31T12:07:56;12.30;72.40
21429;DHT22;10875;50.444;30.540;2022-10-31T12:10:27;12.20;72.00
21429;DHT22;10875;50.444;30.540;2022-10-31T12:15:36;12.00;72.40
21429;DHT22;10875;50.444;30.540;2022-10-31T12:32:16;11.70;72.50
21429;DHT22;10875;50.444;30.540;2022-10-31T12:35:03;11.70;73.10
21429;DHT22;10875;50.444;30.540;2022-10-31T12:37:58;11.60;73.30
21429;DHT22;10875;50.444;30.540;2022-10-31T12:45:35;11.40;73.10
21429;DHT22;10875;50.444;30.540;2022-10-31T12:56:02;11.30;73.40
21429;DHT22;10875;50.444;30.540;2022-10-31T12:58:51;11.30;73.30
21429;DHT22;10875;50.444;30.540;2022-10-31T13:01:39;11.20;73.30
21429;DHT22;10875;50.444;30.540;2022-10-31T13:06:52;11.10;73.60
21429;DHT22;10875;50.444;30.540;2022-10-31T13:09:38;11.10;74.00
21429;DHT22;10875;50.444;30.540;2022-10-31T13:12:13;11.10;74.80
21429;DHT22;10875;50.444;30.540;2022-10-31T13:14:50;11.10;73.40
21429;DHT22;10875;50.444;30.540;2022-10-31T13:17:31;11.00;73.50
21429;DHT22;10875;50.444;30.540;2022-10-31T13:20:24;10.90;74.00
21429;DHT22;10875;50.444;30.540;2022-10-31T13:25:42;10.80;74.10
21429;DHT22;10875;50.444;30.540;2022-10-31T13:30:41;10.80;74.80
21429;DHT22;10875;50.444;30.540;2022-10-31T13:35:53;10.80;74.70
21429;DHT22;10875;50.444;30.540;2022-10-31T13:38:24;10.70;74.80
21429;DHT22;10875;50.444;30.540;2022-10-31T13:41:04;10.70;74.70
21429;DHT22;10875;50.444;30.540;2022-10-31T13:44:04;10.70;74.30
21429;DHT22;10875;50.444;30.540;2022-10-31T13:48:59;10.50;73.90
21429;DHT22;10875;50.444;30.540;2022-10-31T13:51:31;10.50;74.20
21429;DHT22;10875;50.444;30.540;2022-10-31T13:54:06;10.50;74.60
21429;DHT22;10875;50.444;30.540;2022-10-31T13:56:33;10.50;74.90
21429;DHT22;10875;50.444;30.540;2022-10-31T14:01:34;10.40;76.30
21429;DHT22;10875;50.444;30.540;2022-10-31T14:04:02;10.40;75.80
21429;DHT22;10875;50.444;30.540;2022-10-31T14:06:57;10.40;75.90
21429;DHT22;10875;50.444;30.540;2022-10-31T14:09:27;10.30;75.70
21429;DHT22;10875;50.444;30.540;2022-10-31T14:11:54;10.20;76.30
21429;DHT22;10875;50.444;30.540;2022-10-31T14:14:20;10.20;76.50
21429;DHT22;10875;50.444;30.540;2022-10-31T14:16:54;10.20;76.90
21429;DHT22;10875;50.444;30.540;2022-10-31T14:19:21;10.10;76.90
21429;DHT22;10875;50.444;30.540;2022-10-31T14:21:48;10.10;77.10
21429;DHT22;10875;50.444;30.540;2022-10-31T14:29:45;10.60;78.60
21429;DHT22;10875;50.444;30.540;2022-10-31T14:34:41;9.90;79.60
21429;DHT22;10875;50.444;30.540;2022-10-31T14:42:36;9.80;86.00
21429;DHT22;10875;50.444;30.540;2022-10-31T14:48:29;9.80;78.40
21429;DHT22;10875;50.444;30.540;2022-10-31T14:51:01;9.90;78.50
21429;DHT22;10875;50.444;30.540;2022-10-31T14:53:34;9.80;78.70
21429;DHT22;10875;50.444;30.540;2022-10-31T14:56:01;9.70;78.80
21429;DHT22;10875;50.444;30.540;2022-10-31T14:58:39;9.70;78.40
21429;DHT22;10875;50.444;30.540;2022-10-31T15:01:06;9.70;78.70
21429;DHT22;10875;50.444;30.540;2022-10-31T15:03:35;9.60;79.30
21429;DHT22;10875;50.444;30.540;2022-10-31T15:06:11;9.60;79.50
21429;DHT22;10875;50.444;30.540;2022-10-31T15:11:24;9.50;79.70
21429;DHT22;10875;50.444;30.540;2022-10-31T15:13:55;9.50;80.00
21429;DHT22;10875;50.444;30.540;2022-10-31T15:16:30;9.50;80.10
21429;DHT22;10875;50.444;30.540;2022-10-31T15:18:59;9.40;81.20
21429;DHT22;10875;50.444;30.540;2022-10-31T15:21:27;9.40;81.80
21429;DHT22;10875;50.444;30.540;2022-10-31T15:23:55;9.40;81.70
21429;DHT22;10875;50.444;30.540;2022-10-31T15:26:23;9.40;80.40
21429;DHT22;10875;50.444;30.540;2022-10-31T15:29:02;10.20;81.40
21429;DHT22;10875;50.444;30.540;2022-10-31T15:31:28;9.30;81.30
21429;DHT22;10875;50.444;30.540;2022-10-31T15:33:55;9.30;82.00
21429;DHT22;10875;50.444;30.540;2022-10-31T15:36:25;9.30;81.60
21429;DHT22;10875;50.444;30.540;2022-10-31T15:38:52;9.30;82.00
21429;DHT22;10875;50.444;30.540;2022-10-31T15:41:52;9.20;82.60
21429;DHT22;10875;50.444;30.540;2022-10-31T15:44:35;9.20;82.80
21429;DHT22;10875;50.444;30.540;2022-10-31T15:47:04;9.10;83.00
21429;DHT22;10875;50.444;30.540;2022-10-31T15:49:38;9.00;83.50
21429;DHT22;10875;50.444;30.540;2022-10-31T15:52:13;8.90;84.20
21429;DHT22;10875;50.444;30.540;2022-10-31T15:54:49;8.90;84.20
21429;DHT22;10875;50.444;30.540;2022-10-31T15:57:16;8.80;83.60
21429;DHT22;10875;50.444;30.540;2022-10-31T15:59:46;8.80;84.30
21429;DHT22;10875;50.444;30.540;2022-10-31T16:02:13;8.80;83.90
21429;DHT22;10875;50.444;30.540;2022-10-31T16:04:55;8.80;84.80
21429;DHT22;10875;50.444;30.540;2022-10-31T16:07:22;8.80;84.90
21429;DHT22;10875;50.444;30.540;2022-10-31T16:09:56;8.80;85.50
21429;DHT22;10875;50.444;30.540;2022-10-31T16:12:23;8.80;84.90
21429;DHT22;10875;50.444;30.540;2022-10-31T16:14:54;8.70;85.10
21429;DHT22;10875;50.444;30.540;2022-10-31T16:17:22;8.70;86.00
21429;DHT22;10875;50.444;30.540;2022-10-31T16:19:57;8.70;85.40
21429;DHT22;10875;50.444;30.540;2022-10-31T16:22:27;8.70;85.40
21429;DHT22;10875;50.444;30.540;2022-10-31T16:25:08;8.70;86.20
21429;DHT22;10875;50.444;30.540;2022-10-31T16:27:35;8.60;86.20
21429;DHT22;10875;50.444;30.540;2022-10-31T16:30:27;8.60;86.00
21429;DHT22;10875;50.444;30.540;2022-10-31T16:32:53;8.60;85.80
21429;DHT22;10875;50.444;30.540;2022-10-31T16:37:58;8.60;86.60
21429;DHT22;10875;50.444;30.540;2022-10-31T16:40:24;8.50;86.40
21429;DHT22;10875;50.444;30.540;2022-10-31T16:42:50;10.30;87.90
21429;DHT22;10875;50.444;30.540;2022-10-31T16:45:18;8.50;87.40
21429;DHT22;10875;50.444;30.540;2022-10-31T16:47:44;8.50;86.90
21429;DHT22;10875;50.444;30.540;2022-10-31T16:50:23;8.40;86.90
21429;DHT22;10875;50.444;30.540;2022-10-31T16:52:50;8.40;87.70
21429;DHT22;10875;50.444;30.540;2022-10-31T16:55:18;8.30;87.60
21429;DHT22;10875;50.444;30.540;2022-10-31T16:57:48;8.30;88.70
21429;DHT22;10875;50.444;30.540;2022-10-31T17:00:17;8.30;87.90
21429;DHT22;10875;50.444;30.540;2022-10-31T17:02:45;8.30;87.20
21429;DHT22;10875;50.444;30.540;2022-10-31T17:05:15;8.20;88.00
21429;DHT22;10875;50.444;30.540;2022-10-31T17:07:42;8.20;87.40
21429;DHT22;10875;50.444;30.540;2022-10-31T17:10:09;8.20;87.20
21429;DHT22;10875;50.444;30.540;2022-10-31T17:12:35;8.20;87.40
21429;DHT22;10875;50.444;30.540;2022-10-31T17:15:02;8.20;86.90
21429;DHT22;10875;50.444;30.540;2022-10-31T17:17:27;8.20;87.30
21429;DHT22;10875;50.444;30.540;2022-10-31T17:19:53;8.20;87.40
21429;DHT22;10875;50.444;30.540;2022-10-31T17:22:18;8.20;87.90
21429;DHT22;10875;50.444;30.540;2022-10-31T17:24:44;8.20;87.40
21429;DHT22;10875;50.444;30.540;2022-10-31T17:27:10;8.20;87.90
21429;DHT22;10875;50.444;30.540;2022-10-31T17:29:36;7.80;87.60
21429;DHT22;10875;50.444;30.540;2022-10-31T17:32:01;8.10;88.30
21429;DHT22;10875;50.444;30.540;2022-10-31T17:34:28;8.10;88.20
21429;DHT22;10875;50.444;30.540;2022-10-31T17:36:54;8.10;87.80
21429;DHT22;10875;50.444;30.540;2022-10-31T17:39:20;8.00;88.60
21429;DHT22;10875;50.444;30.540;2022-10-31T17:41:49;8.00;88.90
21429;DHT22;10875;50.444;30.540;2022-10-31T17:44:16;8.00;88.70
21429;DHT22;10875;50.444;30.540;2022-10-31T17:46:41;7.90;88.80
21429;DHT22;10875;50.444;30.540;2022-10-31T17:49:10;7.90;88.60
21429;DHT22;10875;50.444;30.540;2022-10-31T17:51:36;8.00;88.80
21429;DHT22;10875;50.444;30.540;2022-10-31T17:54:02;7.90;88.40